METAR Data
IDs: Format: Raw Decoded Include TAF

Data at: 0606 UTC 24 Sep 2020

KRZL 240555Z AUTO 00000KT 10SM CLR 11/09 A3001 RMK AO2 PWINO